createdAt,value
2023-03-30T00:02:51.163Z,5.47
2023-03-30T00:07:56.230Z,5.47
2023-03-30T00:13:02.547Z,6.45
2023-03-30T00:18:08.000Z,5.05
2023-03-30T00:23:12.455Z,4.88
2023-03-30T00:28:18.136Z,5.18
2023-03-30T00:33:33.503Z,6.20
2023-03-30T00:38:48.540Z,8.05
2023-03-30T00:44:02.609Z,5.10
2023-03-30T00:49:12.466Z,5.22
2023-03-30T00:54:20.241Z,5.43
2023-03-30T00:59:25.914Z,4.18
2023-03-30T01:04:29.951Z,4.68
2023-03-30T01:09:34.706Z,4.57
2023-03-30T01:14:41.492Z,3.85
2023-03-30T01:20:15.184Z,3.65
2023-03-30T01:25:59.662Z,3.78
2023-03-30T01:31:30.295Z,4.43
2023-03-30T01:37:09.542Z,4.40
2023-03-30T01:42:20.927Z,3.75
2023-03-30T01:47:33.856Z,4.90
2023-03-30T01:52:42.735Z,5.10
2023-03-30T01:57:54.682Z,3.93
2023-03-30T02:03:05.795Z,4.22
2023-03-30T02:08:14.292Z,4.07
2023-03-30T02:13:22.623Z,4.93
2023-03-30T02:18:27.411Z,3.30
2023-03-30T02:23:36.894Z,4.60
2023-03-30T02:28:42.534Z,3.85
2023-03-30T02:34:02.943Z,4.45
2023-03-30T02:39:18.745Z,4.03
2023-03-30T02:44:39.042Z,4.28
2023-03-30T02:49:54.748Z,4.78
2023-03-30T02:55:07.358Z,4.57
2023-03-30T03:00:18.566Z,6.03
2023-03-30T03:05:24.485Z,8.65
2023-03-30T03:10:49.516Z,8.30
2023-03-30T03:15:57.236Z,7.22
2023-03-30T03:21:05.056Z,6.60
2023-03-30T03:26:10.287Z,6.07
2023-03-30T03:31:17.020Z,6.15
2023-03-30T03:36:23.962Z,6.15
2023-03-30T03:41:30.556Z,6.90
2023-03-30T03:46:36.638Z,5.50
2023-03-30T03:51:41.494Z,5.03
2023-03-30T03:56:46.009Z,5.05
2023-03-30T04:01:52.047Z,5.40
2023-03-30T04:06:56.498Z,4.85
2023-03-30T04:12:00.765Z,5.97
2023-03-30T04:17:29.964Z,5.45
2023-03-30T04:23:03.605Z,6.00
2023-03-30T04:28:40.418Z,5.57
2023-03-30T04:34:06.486Z,4.97
2023-03-30T04:39:11.579Z,5.80
2023-03-30T04:44:34.888Z,4.57
2023-03-30T04:49:58.623Z,6.28
2023-03-30T04:55:21.439Z,6.22
2023-03-30T05:00:35.001Z,6.25
2023-03-30T05:05:58.877Z,6.43
2023-03-30T05:11:41.887Z,7.75
2023-03-30T05:16:56.211Z,8.38
2023-03-30T05:22:09.667Z,8.45
2023-03-30T05:27:31.645Z,6.50
2023-03-30T05:32:45.776Z,6.68
2023-03-30T05:38:14.024Z,9.00
2023-03-30T05:43:37.485Z,7.30
2023-03-30T05:48:52.241Z,7.22
2023-03-30T05:54:06.650Z,6.07
2023-03-30T06:05:01.806Z,6.18
2023-03-30T06:10:09.050Z,5.20
2023-03-30T06:15:14.146Z,5.90
2023-03-30T06:20:29.650Z,6.97
2023-03-30T06:25:37.325Z,6.28
2023-03-30T06:30:42.608Z,8.30
2023-03-30T06:35:51.127Z,6.97
2023-03-30T06:40:59.946Z,9.27
2023-03-30T06:46:07.390Z,6.47
2023-03-30T06:51:14.821Z,6.70
2023-03-30T06:56:22.770Z,5.45
2023-03-30T07:01:46.236Z,6.13
2023-03-30T07:07:10.947Z,8.88
2023-03-30T07:12:17.015Z,7.55
2023-03-30T07:17:26.792Z,6.78
2023-03-30T07:22:31.645Z,4.93
2023-03-30T07:27:38.231Z,5.55
2023-03-30T07:32:42.717Z,5.60
2023-03-30T07:37:51.015Z,6.10
2023-03-30T07:42:57.525Z,6.35
2023-03-30T07:48:03.176Z,5.05
2023-03-30T07:53:08.040Z,7.05
2023-03-30T07:58:15.619Z,4.90
2023-03-30T08:03:20.328Z,5.25
2023-03-30T08:08:25.083Z,4.47
2023-03-30T08:13:33.114Z,4.95
2023-03-30T08:18:38.624Z,4.57
2023-03-30T08:23:42.843Z,5.45
2023-03-30T08:28:48.681Z,6.40
2023-03-30T08:33:53.296Z,5.70
2023-03-30T08:38:58.175Z,8.93
2023-03-30T08:44:07.353Z,5.10
2023-03-30T08:49:18.103Z,5.00
2023-03-30T08:54:26.008Z,5.60
2023-03-30T08:59:42.423Z,4.90
2023-03-30T09:05:02.137Z,5.30
2023-03-30T09:10:13.374Z,3.75
2023-03-30T09:15:21.944Z,5.78
2023-03-30T09:20:28.720Z,12.60
2023-03-30T09:25:40.875Z,4.50
2023-03-30T09:30:49.781Z,4.18
2023-03-30T09:36:15.272Z,3.93
2023-03-30T09:41:33.332Z,2.97
2023-03-30T09:46:40.620Z,3.17
2023-03-30T09:51:57.833Z,3.55
2023-03-30T09:57:02.235Z,3.83
2023-03-30T10:02:21.170Z,2.92
2023-03-30T10:07:28.141Z,3.47
2023-03-30T10:12:32.753Z,3.40
2023-03-30T10:24:51.791Z,3.75
2023-03-30T10:29:56.125Z,3.20
2023-03-30T10:35:05.583Z,4.38
2023-03-30T10:40:18.909Z,3.45
2023-03-30T10:45:29.808Z,2.58
2023-03-30T10:50:41.328Z,2.58
2023-03-30T10:55:53.749Z,3.38
2023-03-30T11:01:11.854Z,3.78
2023-03-30T11:06:21.084Z,2.80
2023-03-30T11:11:34.596Z,4.30
2023-03-30T11:16:47.895Z,4.07
2023-03-30T11:21:59.793Z,3.67
2023-03-30T11:27:12.392Z,5.18
2023-03-30T11:32:26.331Z,4.32
2023-03-30T11:37:35.605Z,7.22
2023-03-30T11:42:42.244Z,10.70
2023-03-30T11:48:04.092Z,4.15
2023-03-30T11:53:18.557Z,6.45
2023-03-30T11:58:33.638Z,4.07
2023-03-30T12:03:42.836Z,7.70
2023-03-30T12:09:01.271Z,3.17
2023-03-30T12:14:28.532Z,17.13
2023-03-30T12:19:55.186Z,6.60
2023-03-30T12:25:05.300Z,5.80
2023-03-30T12:30:16.675Z,4.57
2023-03-30T12:35:56.834Z,3.72
2023-03-30T12:41:14.882Z,5.90
2023-03-30T12:46:28.364Z,4.63
2023-03-30T12:51:54.162Z,4.45
2023-03-30T12:57:07.054Z,4.85
2023-03-30T13:02:50.889Z,7.55
2023-03-30T13:07:58.896Z,6.13
2023-03-30T13:13:05.059Z,5.35
2023-03-30T13:18:34.577Z,9.75
2023-03-30T13:23:40.179Z,4.60
2023-03-30T13:28:57.180Z,4.18
2023-03-30T13:34:14.613Z,4.45
2023-03-30T13:39:24.388Z,5.10
2023-03-30T13:49:56.687Z,6.35
2023-03-30T13:55:01.836Z,6.10
2023-03-30T14:00:11.176Z,7.65
2023-03-30T14:05:21.851Z,10.10
2023-03-30T14:10:26.749Z,8.02
2023-03-30T14:15:36.330Z,9.02
2023-03-30T14:20:49.656Z,7.82
2023-03-30T14:25:59.183Z,7.30
2023-03-30T14:31:06.959Z,5.95
2023-03-30T14:36:16.618Z,8.70
2023-03-30T14:46:40.470Z,9.90
2023-03-30T14:51:49.398Z,7.28
2023-03-30T14:56:59.048Z,8.70
2023-03-30T15:07:13.417Z,18.33
2023-03-30T15:12:22.838Z,12.65
2023-03-30T15:17:30.257Z,19.20
2023-03-30T15:22:39.016Z,14.20
2023-03-30T15:27:47.171Z,11.85
2023-03-30T15:32:55.947Z,14.50
2023-03-30T15:38:03.668Z,13.87
2023-03-30T15:43:16.459Z,15.60
2023-03-30T15:48:23.976Z,17.50
2023-03-30T15:53:41.737Z,13.85
2023-03-30T15:58:46.620Z,44.38
2023-03-30T16:03:57.004Z,19.70
2023-03-30T16:09:08.984Z,12.00
2023-03-30T16:14:16.357Z,14.05
2023-03-30T16:19:21.133Z,21.23
2023-03-30T16:24:26.658Z,24.00
2023-03-30T16:29:31.710Z,17.65
2023-03-30T16:34:36.967Z,16.27
2023-03-30T16:39:43.344Z,18.48
2023-03-30T16:44:47.491Z,23.83
2023-03-30T16:49:52.073Z,21.77
2023-03-30T16:54:58.044Z,22.20
2023-03-30T17:00:02.813Z,29.05
2023-03-30T17:05:08.220Z,18.10
2023-03-30T17:10:21.128Z,24.13
2023-03-30T17:15:26.916Z,20.70
2023-03-30T17:20:37.330Z,26.88
2023-03-30T17:25:43.232Z,27.17
2023-03-30T17:30:47.425Z,31.02
2023-03-30T17:35:55.075Z,32.53
2023-03-30T17:41:01.892Z,36.60
2023-03-30T17:46:06.908Z,32.78
2023-03-30T17:51:11.763Z,30.05
2023-03-30T17:56:17.634Z,24.17
2023-03-30T18:01:21.915Z,23.45
2023-03-30T18:06:26.264Z,25.52
2023-03-30T18:11:32.770Z,26.90
2023-03-30T18:16:40.716Z,27.80
2023-03-30T18:21:45.386Z,24.52
2023-03-30T18:26:51.228Z,26.45
2023-03-30T18:31:55.648Z,35.47
2023-03-30T18:36:59.841Z,33.50
2023-03-30T18:42:05.810Z,31.42
2023-03-30T18:47:11.298Z,39.88
2023-03-30T18:52:16.976Z,34.78
2023-03-30T18:57:22.651Z,27.20
2023-03-30T19:02:27.507Z,32.67
2023-03-30T19:07:31.992Z,40.85
2023-03-30T19:12:37.788Z,29.85
2023-03-30T19:17:42.413Z,26.15
2023-03-30T19:22:47.029Z,20.67
2023-03-30T19:28:03.317Z,22.90
2023-03-30T19:33:12.234Z,19.77
2023-03-30T19:38:17.066Z,22.60
2023-03-30T19:43:22.824Z,23.80
2023-03-30T19:48:27.765Z,32.28
2023-03-30T19:53:31.901Z,28.45
2023-03-30T19:58:37.725Z,26.83
2023-03-30T20:03:42.166Z,26.05
2023-03-30T20:08:47.152Z,23.60
2023-03-30T20:13:54.120Z,25.27
2023-03-30T20:18:58.984Z,22.10
2023-03-30T20:24:03.574Z,22.42
2023-03-30T20:29:09.280Z,21.63
2023-03-30T20:34:15.708Z,14.73
2023-03-30T20:39:22.420Z,18.27
2023-03-30T20:44:31.977Z,18.90
2023-03-30T20:49:38.288Z,20.15
2023-03-30T20:54:44.700Z,18.67
2023-03-30T20:59:52.822Z,21.73
2023-03-30T21:04:58.205Z,20.02
2023-03-30T21:10:02.547Z,21.25
2023-03-30T21:15:09.071Z,20.52
2023-03-30T21:20:14.548Z,24.40
2023-03-30T21:25:18.900Z,21.05
2023-03-30T21:30:24.484Z,19.52
2023-03-30T21:35:28.705Z,17.48
2023-03-30T21:40:32.958Z,17.92
2023-03-30T21:45:38.520Z,19.77
2023-03-30T21:50:43.096Z,17.27
2023-03-30T21:55:48.383Z,20.25
2023-03-30T22:01:08.529Z,20.98
2023-03-30T22:06:18.022Z,19.10
2023-03-30T22:11:24.210Z,18.88
2023-03-30T22:16:33.393Z,17.52
2023-03-30T22:21:38.171Z,18.45
2023-03-30T22:26:42.652Z,19.92
2023-03-30T22:31:48.319Z,18.13
2023-03-30T22:36:53.125Z,18.00
2023-03-30T22:41:57.433Z,17.42
2023-03-30T22:47:03.306Z,19.92
2023-03-30T22:52:08.030Z,19.90
2023-03-30T22:57:12.838Z,18.63
2023-03-30T23:02:18.528Z,22.65
2023-03-30T23:07:22.720Z,20.92
2023-03-30T23:12:27.014Z,19.73
2023-03-30T23:17:32.816Z,20.83
2023-03-30T23:22:38.237Z,19.67
2023-03-30T23:27:42.478Z,18.60
2023-03-30T23:32:48.136Z,20.30
2023-03-30T23:37:52.872Z,21.67
2023-03-30T23:42:57.666Z,19.38
2023-03-30T23:48:03.179Z,20.85
2023-03-30T23:53:07.452Z,21.10
2023-03-30T23:58:11.840Z,22.75
